createdAt,value
2018-07-12T00:01:40.031Z,101899.13
2018-07-12T00:04:06.449Z,101896.78
2018-07-12T00:06:32.874Z,101897.63
2018-07-12T00:08:59.306Z,101891.57
2018-07-12T00:11:25.742Z,101893.45
2018-07-12T00:13:52.401Z,101894.93
2018-07-12T00:16:18.836Z,101891.72
2018-07-12T00:18:45.275Z,101890.30
2018-07-12T00:21:11.732Z,101893.52
2018-07-12T00:23:38.164Z,101889.09
2018-07-12T00:26:04.621Z,101892.27
2018-07-12T00:28:31.066Z,101886.02
2018-07-12T00:30:57.485Z,101886.84
2018-07-12T00:33:23.914Z,101881.77
2018-07-12T00:35:50.366Z,101888.52
2018-07-12T00:38:16.807Z,101889.53
2018-07-12T00:40:43.245Z,101889.30
2018-07-12T00:43:09.666Z,101881.41
2018-07-12T00:45:36.108Z,101880.24
2018-07-12T00:48:02.571Z,101878.45
2018-07-12T00:50:29.030Z,101872.28
2018-07-12T00:52:55.480Z,101872.34
2018-07-12T00:55:21.941Z,101874.23
2018-07-12T00:57:48.405Z,101870.69
2018-07-12T01:00:15.069Z,101866.69
2018-07-12T01:02:41.513Z,101866.61
2018-07-12T01:05:07.949Z,101865.19
2018-07-12T01:07:34.374Z,101863.48
2018-07-12T01:10:01.659Z,101868.44
2018-07-12T01:12:28.078Z,101867.73
2018-07-12T01:14:54.528Z,101867.69
2018-07-12T01:17:20.949Z,101869.22
2018-07-12T01:19:47.387Z,101870.01
2018-07-12T01:22:13.833Z,101868.59
2018-07-12T01:24:40.275Z,101876.70
2018-07-12T01:27:06.706Z,101876.86
2018-07-12T01:29:33.152Z,101868.62
2018-07-12T01:31:59.577Z,101870.48
2018-07-12T01:34:26.026Z,101872.70
2018-07-12T01:36:52.634Z,101871.16
2018-07-12T01:39:19.267Z,101869.00
2018-07-12T01:41:45.717Z,101868.11
2018-07-12T01:44:12.160Z,101869.86
2018-07-12T01:46:38.617Z,101870.20
2018-07-12T01:49:05.070Z,101868.30
2018-07-12T01:51:31.526Z,101863.40
2018-07-12T01:53:57.975Z,101860.72
2018-07-12T01:56:24.428Z,101869.02
2018-07-12T01:58:50.878Z,101867.60
2018-07-12T02:01:17.321Z,101863.77
2018-07-12T02:03:43.746Z,101866.47
2018-07-12T02:06:10.181Z,101860.82
2018-07-12T02:08:36.645Z,101865.26
2018-07-12T02:11:03.076Z,101859.77
2018-07-12T02:13:29.521Z,101861.50
2018-07-12T02:15:55.961Z,101864.86
2018-07-12T02:18:22.397Z,101865.46
2018-07-12T02:20:48.844Z,101861.88
2018-07-12T02:23:15.303Z,101866.73
2018-07-12T02:25:41.734Z,101867.23
2018-07-12T02:28:08.183Z,101858.92
2018-07-12T02:30:34.623Z,101861.52
2018-07-12T02:33:01.082Z,101857.55
2018-07-12T02:35:27.522Z,101861.05
2018-07-12T02:37:54.006Z,101848.81
2018-07-12T02:40:20.438Z,101850.03
2018-07-12T02:42:46.886Z,101849.28
2018-07-12T02:45:13.318Z,101858.31
2018-07-12T02:47:39.749Z,101858.88
2018-07-12T02:50:06.197Z,101858.13
2018-07-12T02:52:32.634Z,101854.58
2018-07-12T02:54:59.077Z,101862.25
2018-07-12T02:57:25.510Z,101860.22
2018-07-12T02:59:51.948Z,101860.99
2018-07-12T03:02:18.404Z,101844.84
2018-07-12T03:04:44.837Z,101855.35
2018-07-12T03:07:11.278Z,101846.85
2018-07-12T03:09:37.711Z,101850.99
2018-07-12T03:12:04.162Z,101846.13
2018-07-12T03:14:30.591Z,101848.59
2018-07-12T03:16:57.021Z,101848.96
2018-07-12T03:19:23.455Z,101848.67
2018-07-12T03:21:49.928Z,101841.53
2018-07-12T03:24:16.382Z,101834.50
2018-07-12T03:26:42.825Z,101836.38
2018-07-12T03:29:09.270Z,101837.05
2018-07-12T03:31:35.709Z,101836.34
2018-07-12T03:34:02.154Z,101841.46
2018-07-12T03:36:28.585Z,101840.01
2018-07-12T03:38:55.024Z,101846.79
2018-07-12T03:41:21.460Z,101841.20
2018-07-12T03:43:47.944Z,101836.17
2018-07-12T03:46:14.382Z,101829.52
2018-07-12T03:48:40.825Z,101834.05
2018-07-12T03:51:07.272Z,101830.44
2018-07-12T03:53:33.698Z,101826.84
2018-07-12T03:56:00.124Z,101829.70
2018-07-12T03:58:26.572Z,101832.00
2018-07-12T04:00:53.005Z,101835.78
2018-07-12T04:03:19.451Z,101831.06
2018-07-12T04:05:45.895Z,101831.48
2018-07-12T04:08:12.314Z,101836.93
2018-07-12T04:10:38.737Z,101829.98
2018-07-12T04:13:05.181Z,101836.35
2018-07-12T04:15:31.626Z,101837.50
2018-07-12T04:17:58.082Z,101837.34
2018-07-12T04:20:24.521Z,101837.33
2018-07-12T04:22:50.965Z,101844.36
2018-07-12T04:25:17.413Z,101839.89
2018-07-12T04:27:43.840Z,101841.50
2018-07-12T04:30:10.274Z,101836.98
2018-07-12T04:32:36.713Z,101840.37
2018-07-12T04:35:03.177Z,101837.99
2018-07-12T04:37:29.617Z,101838.94
2018-07-12T04:39:56.085Z,101837.73
2018-07-12T04:42:22.527Z,101835.21
2018-07-12T04:44:48.949Z,101832.27
2018-07-12T04:47:15.369Z,101836.55
2018-07-12T04:49:41.833Z,101829.54
2018-07-12T04:52:08.278Z,101832.11
2018-07-12T04:54:34.715Z,101836.27
2018-07-12T04:57:01.154Z,101836.64
2018-07-12T04:59:27.590Z,101843.67
2018-07-12T05:01:54.026Z,101836.78
2018-07-12T05:04:20.465Z,101844.34
2018-07-12T05:06:46.883Z,101843.22
2018-07-12T05:09:13.320Z,101836.28
2018-07-12T05:11:39.750Z,101844.25
2018-07-12T05:14:06.214Z,101843.90
2018-07-12T05:16:32.638Z,101844.59
2018-07-12T05:18:59.067Z,101844.88
2018-07-12T05:21:25.504Z,101850.50
2018-07-12T05:23:51.950Z,101846.40
2018-07-12T05:26:18.402Z,101851.88
2018-07-12T05:28:44.831Z,101849.11
2018-07-12T05:31:11.280Z,101843.94
2018-07-12T05:33:37.722Z,101846.11
2018-07-12T05:36:50.133Z,101852.23
2018-07-12T05:39:18.703Z,101857.34
2018-07-12T05:41:46.405Z,101854.44
2018-07-12T05:44:14.689Z,101861.62
2018-07-12T05:46:42.643Z,101854.70
2018-07-12T05:49:10.290Z,101856.78
2018-07-12T05:51:37.959Z,101859.34
2018-07-12T05:54:05.993Z,101861.28
2018-07-12T05:56:33.658Z,101856.41
2018-07-12T05:59:01.470Z,101861.52
2018-07-12T06:01:40.361Z,101853.13
2018-07-12T06:04:08.188Z,101851.70
2018-07-12T06:06:35.876Z,101842.61
2018-07-12T06:09:05.517Z,101842.37
2018-07-12T06:11:33.210Z,101838.98
2018-07-12T06:14:01.024Z,101850.69
2018-07-12T06:16:28.686Z,101843.16
2018-07-12T06:18:56.504Z,101842.31
2018-07-12T06:21:24.210Z,101845.59
2018-07-12T06:23:51.863Z,101840.37
2018-07-12T06:26:19.529Z,101833.92
2018-07-12T06:28:47.218Z,101791.52
2018-07-12T06:31:14.902Z,101844.02
2018-07-12T06:33:42.563Z,101837.56
2018-07-12T06:36:10.241Z,101835.39
2018-07-12T06:38:37.952Z,101837.59
2018-07-12T06:41:05.661Z,101830.30
2018-07-12T06:43:33.342Z,101830.66
2018-07-12T06:46:00.995Z,101820.06
2018-07-12T06:48:28.668Z,101828.09
2018-07-12T06:50:56.325Z,101830.90
2018-07-12T06:53:24.021Z,101831.02
2018-07-12T06:55:51.859Z,101828.00
2018-07-12T06:58:19.525Z,101834.55
2018-07-12T07:00:47.222Z,101842.35
2018-07-12T07:03:14.894Z,101841.50
2018-07-12T07:05:42.560Z,101842.22
2018-07-12T07:08:10.236Z,101848.42
2018-07-12T07:10:38.923Z,101844.65
2018-07-12T07:13:06.631Z,101842.70
2018-07-12T07:15:34.298Z,101850.49
2018-07-12T07:18:01.977Z,101846.11
2018-07-12T07:20:29.653Z,101837.86
2018-07-12T07:22:57.383Z,101843.07
2018-07-12T07:25:25.053Z,101839.42
2018-07-12T07:27:52.710Z,101840.88
2018-07-12T07:30:20.378Z,101838.09
2018-07-12T07:32:48.067Z,101845.16
2018-07-12T07:35:15.770Z,101838.45
2018-07-12T07:37:43.441Z,101838.31
2018-07-12T07:40:11.090Z,101843.66
2018-07-12T07:42:38.767Z,101836.14
2018-07-12T07:45:06.469Z,101836.87
2018-07-12T07:47:34.170Z,101840.75
2018-07-12T07:50:01.840Z,101837.72
2018-07-12T07:52:29.525Z,101833.02
2018-07-12T07:54:57.205Z,101826.91
2018-07-12T07:57:24.901Z,101821.94
2018-07-12T07:59:52.599Z,101818.30
2018-07-12T08:02:20.263Z,101825.72
2018-07-12T08:04:47.941Z,101820.95
2018-07-12T08:07:15.633Z,101818.17
2018-07-12T08:09:43.303Z,101821.34
2018-07-12T08:12:11.909Z,101822.80
2018-07-12T08:14:39.762Z,101829.13
2018-07-12T08:17:07.458Z,101829.71
2018-07-12T08:19:35.198Z,101829.47
2018-07-12T08:22:06.363Z,101830.57
2018-07-12T08:24:34.544Z,101827.03
2018-07-12T08:27:02.688Z,101825.59
2018-07-12T08:29:30.977Z,101821.58
2018-07-12T08:31:58.746Z,101822.31
2018-07-12T08:34:26.701Z,101825.94
2018-07-12T08:36:54.487Z,101814.02
2018-07-12T08:39:22.259Z,101815.86
2018-07-12T08:41:50.087Z,101816.09
2018-07-12T08:44:18.082Z,101820.47
2018-07-12T08:46:45.874Z,101812.94
2018-07-12T08:49:13.577Z,101813.52
2018-07-12T08:51:41.278Z,101813.52
2018-07-12T08:54:08.929Z,101809.41
2018-07-12T08:56:36.616Z,101809.16
2018-07-12T08:59:04.333Z,101804.06
2018-07-12T09:01:32.026Z,101807.33
2018-07-12T09:03:59.687Z,101807.94
2018-07-12T09:06:27.415Z,101805.73
2018-07-12T09:08:55.100Z,101802.70
2018-07-12T09:11:22.754Z,101802.80
2018-07-12T09:13:50.503Z,101800.73
2018-07-12T09:16:18.206Z,101802.80
2018-07-12T09:18:45.901Z,101803.06
2018-07-12T09:21:13.638Z,101797.20
2018-07-12T09:23:41.306Z,101795.34
2018-07-12T09:26:08.979Z,101799.47
2018-07-12T09:28:36.741Z,101795.45
2018-07-12T09:31:04.420Z,101794.72
2018-07-12T09:33:32.077Z,101795.05
2018-07-12T09:35:59.813Z,101787.57
2018-07-12T09:38:45.693Z,101791.22
2018-07-12T09:41:13.446Z,101796.16
2018-07-12T09:43:42.229Z,101792.50
2018-07-12T09:46:09.903Z,101789.56
2018-07-12T09:48:39.570Z,101788.45
2018-07-12T09:51:07.614Z,101792.09
2018-07-12T09:53:35.282Z,101791.81
2018-07-12T09:56:03.087Z,101791.89
2018-07-12T09:58:30.919Z,101794.33
2018-07-12T10:01:04.234Z,101795.78
2018-07-12T10:03:37.419Z,101795.14
2018-07-12T10:06:10.653Z,101791.22
2018-07-12T10:08:43.814Z,101789.05
2018-07-12T10:11:16.994Z,101786.42
2018-07-12T10:13:50.185Z,101783.23
2018-07-12T10:16:24.128Z,101781.20
2018-07-12T10:18:51.841Z,101773.72
2018-07-12T10:21:19.649Z,101776.48
2018-07-12T10:23:47.340Z,101769.03
2018-07-12T10:26:15.076Z,101769.10
2018-07-12T10:28:42.986Z,101773.84
2018-07-12T10:31:10.702Z,101769.07
2018-07-12T10:33:38.387Z,101762.52
2018-07-12T10:36:06.127Z,101763.66
2018-07-12T10:38:33.837Z,101766.49
2018-07-12T10:41:01.519Z,101761.72
2018-07-12T10:43:29.212Z,101755.64
2018-07-12T10:45:59.115Z,101758.48
2018-07-12T10:48:26.793Z,101757.73
2018-07-12T10:50:55.205Z,101750.27
2018-07-12T10:53:22.905Z,101745.46
2018-07-12T10:55:50.587Z,101748.87
2018-07-12T10:58:18.251Z,101747.28
2018-07-12T11:00:45.958Z,101745.36
2018-07-12T11:03:13.618Z,101737.33
2018-07-12T11:05:41.319Z,101733.83
2018-07-12T11:08:09.082Z,101732.64
2018-07-12T11:10:36.734Z,101731.42
2018-07-12T11:13:13.832Z,101725.34
2018-07-12T11:15:41.810Z,101729.02
2018-07-12T11:18:09.491Z,101727.98
2018-07-12T11:20:37.237Z,101725.84
2018-07-12T11:23:04.950Z,101725.13
2018-07-12T11:25:32.597Z,101721.81
2018-07-12T11:28:00.465Z,101726.58
2018-07-12T11:30:28.150Z,101726.58
2018-07-12T11:32:55.811Z,101719.87
2018-07-12T11:35:23.514Z,101728.48
2018-07-12T11:37:51.281Z,101723.61
2018-07-12T11:40:18.951Z,101723.10
2018-07-12T11:42:46.682Z,101721.92
2018-07-12T11:45:14.369Z,101723.45
2018-07-12T11:47:42.063Z,101720.14
2018-07-12T11:50:09.751Z,101719.50
2018-07-12T11:52:37.475Z,101725.23
2018-07-12T11:55:05.238Z,101723.48
2018-07-12T11:57:33.318Z,101720.86
2018-07-12T12:00:00.984Z,101716.13
2018-07-12T12:02:28.637Z,101720.09
2018-07-12T12:04:56.355Z,101719.00
2018-07-12T12:07:24.034Z,101724.67
2018-07-12T12:09:51.685Z,101718.95
2018-07-12T12:12:19.384Z,101731.75
2018-07-12T12:14:47.061Z,101722.70
2018-07-12T12:17:14.737Z,101721.77
2018-07-12T12:19:42.477Z,101719.79
2018-07-12T12:22:10.134Z,101725.33
2018-07-12T12:24:37.805Z,101721.77
2018-07-12T12:27:05.673Z,101726.80
2018-07-12T12:29:33.352Z,101723.84
2018-07-12T12:32:01.030Z,101720.00
2018-07-12T12:34:28.722Z,101720.58
2018-07-12T12:36:56.421Z,101722.53
2018-07-12T12:39:24.094Z,101718.58
2018-07-12T12:41:51.847Z,101727.95
2018-07-12T12:44:19.525Z,101718.83
2018-07-12T12:46:47.182Z,101723.72
2018-07-12T12:49:14.963Z,101715.64
2018-07-12T12:51:42.626Z,101712.56
2018-07-12T12:54:10.299Z,101708.06
2018-07-12T12:56:38.162Z,101705.25
2018-07-12T12:59:05.843Z,101699.67
2018-07-12T13:01:33.651Z,101698.33
2018-07-12T13:04:01.443Z,101692.94
2018-07-12T13:06:29.119Z,101682.50
2018-07-12T13:08:56.786Z,101685.61
2018-07-12T13:11:24.450Z,101688.02
2018-07-12T13:13:52.142Z,101677.53
2018-07-12T13:16:21.094Z,101674.87
2018-07-12T13:18:48.763Z,101674.94
2018-07-12T13:21:16.426Z,101678.77
2018-07-12T13:23:44.106Z,101665.33
2018-07-12T13:26:11.889Z,101665.82
2018-07-12T13:28:39.500Z,101668.10
2018-07-12T13:31:07.203Z,101667.31
2018-07-12T13:33:34.885Z,101661.94
2018-07-12T13:36:02.568Z,101660.77
2018-07-12T13:38:30.226Z,101659.42
2018-07-12T13:40:57.885Z,101658.92
2018-07-12T13:43:25.559Z,101654.67
2018-07-12T13:45:53.245Z,101654.45
2018-07-12T13:48:20.931Z,101656.14
2018-07-12T13:50:49.900Z,101653.97
2018-07-12T13:53:17.545Z,101652.17
2018-07-12T13:55:45.211Z,101648.14
2018-07-12T13:58:12.871Z,101644.78
2018-07-12T14:00:40.534Z,101648.13
2018-07-12T14:03:08.197Z,101643.91
2018-07-12T14:05:35.908Z,101646.77
2018-07-12T14:08:03.597Z,101646.64
2018-07-12T14:10:31.306Z,101637.27
2018-07-12T14:12:58.977Z,101621.33
2018-07-12T14:15:26.657Z,101629.85
2018-07-12T14:17:54.309Z,101637.16
2018-07-12T14:20:22.017Z,101628.40
2018-07-12T14:22:49.669Z,101622.12
2018-07-12T14:25:17.357Z,101620.78
2018-07-12T14:27:45.034Z,101616.34
2018-07-12T14:30:12.710Z,101616.22
2018-07-12T14:32:40.394Z,101616.52
2018-07-12T14:35:08.057Z,101616.30
2018-07-12T14:37:35.726Z,101609.73
2018-07-12T14:40:03.445Z,101607.92
2018-07-12T14:42:31.136Z,101605.35
2018-07-12T14:44:58.805Z,101603.25
2018-07-12T14:47:26.597Z,101602.95
2018-07-12T14:49:54.276Z,101605.83
2018-07-12T14:52:22.672Z,101600.62
2018-07-12T14:54:50.396Z,101592.90
2018-07-12T14:57:18.095Z,101603.66
2018-07-12T14:59:45.798Z,101594.40
2018-07-12T15:02:13.582Z,101592.19
2018-07-12T15:04:41.282Z,101581.03
2018-07-12T15:07:08.978Z,101573.42
2018-07-12T15:09:36.672Z,101572.27
2018-07-12T15:12:04.351Z,101578.86
2018-07-12T15:14:32.010Z,101569.88
2018-07-12T15:16:59.720Z,101570.92
2018-07-12T15:19:27.456Z,101571.08
2018-07-12T15:21:55.073Z,101564.41
2018-07-12T15:24:22.750Z,101566.45
2018-07-12T15:26:50.443Z,101565.94
2018-07-12T15:29:18.168Z,101557.73
2018-07-12T15:31:45.832Z,101556.22
2018-07-12T15:34:13.482Z,101553.19
2018-07-12T15:36:41.131Z,101554.70
2018-07-12T15:39:09.151Z,101556.52
2018-07-12T15:41:37.214Z,101555.83
2018-07-12T15:44:04.922Z,101558.98
2018-07-12T15:46:32.675Z,101549.05
2018-07-12T15:49:00.371Z,101550.70
2018-07-12T15:51:28.052Z,101550.34
2018-07-12T15:53:55.702Z,101550.70
2018-07-12T15:56:23.367Z,101551.05
2018-07-12T15:58:51.047Z,101547.31
2018-07-12T16:01:18.710Z,101549.00
2018-07-12T16:03:46.381Z,101548.01
2018-07-12T16:06:14.049Z,101542.33
2018-07-12T16:08:41.698Z,101546.36
2018-07-12T16:11:09.383Z,101543.67
2018-07-12T16:13:37.081Z,101537.64
2018-07-12T16:16:04.785Z,101536.95
2018-07-12T16:18:32.457Z,101541.98
2018-07-12T16:21:00.148Z,101543.97
2018-07-12T16:23:27.853Z,101542.14
2018-07-12T16:25:55.526Z,101540.63
2018-07-12T16:28:23.202Z,101543.02
2018-07-12T16:30:50.873Z,101538.51
2018-07-12T16:33:18.550Z,101539.11
2018-07-12T16:35:46.278Z,101540.23
2018-07-12T16:38:13.986Z,101537.84
2018-07-12T16:40:41.644Z,101536.67
2018-07-12T16:43:09.298Z,101539.84
2018-07-12T16:45:36.984Z,101534.76
2018-07-12T16:48:04.715Z,101530.67
2018-07-12T16:50:32.394Z,101527.77
2018-07-12T16:53:00.050Z,101528.28
2018-07-12T16:55:27.754Z,101525.95
2018-07-12T16:57:55.485Z,101526.59
2018-07-12T17:00:23.206Z,101528.36
2018-07-12T17:02:50.885Z,101523.09
2018-07-12T17:05:18.631Z,101521.80
2018-07-12T17:07:46.359Z,101526.27
2018-07-12T17:10:14.037Z,101528.95
2018-07-12T17:12:41.783Z,101525.27
2018-07-12T17:15:09.642Z,101526.61
2018-07-12T17:17:37.300Z,101525.21
2018-07-12T17:20:04.970Z,101525.02
2018-07-12T17:22:32.639Z,101524.11
2018-07-12T17:25:00.293Z,101529.84
2018-07-12T17:27:27.962Z,101535.09
2018-07-12T17:29:55.654Z,101526.11
2018-07-12T17:32:23.335Z,101532.98
2018-07-12T17:34:51.016Z,101537.20
2018-07-12T17:37:18.702Z,101531.83
2018-07-12T17:39:46.374Z,101532.34
2018-07-12T17:42:14.055Z,101540.75
2018-07-12T17:44:41.737Z,101539.77
2018-07-12T17:47:09.394Z,101539.83
2018-07-12T17:49:37.299Z,101542.56
2018-07-12T17:52:05.157Z,101541.83
2018-07-12T17:54:32.820Z,101543.27
2018-07-12T17:57:00.493Z,101544.38
2018-07-12T17:59:28.133Z,101538.15
2018-07-12T18:01:55.798Z,101540.42
2018-07-12T18:04:23.491Z,101541.41
2018-07-12T18:06:51.308Z,101535.91
2018-07-12T18:09:18.962Z,101535.44
2018-07-12T18:11:46.657Z,101541.92
2018-07-12T18:14:14.445Z,101539.59
2018-07-12T18:16:42.121Z,101532.40
2018-07-12T18:19:09.765Z,101537.77
2018-07-12T18:21:37.564Z,101540.30
2018-07-12T18:24:05.250Z,101542.85
2018-07-12T18:26:32.902Z,101537.06
2018-07-12T18:29:00.675Z,101544.77
2018-07-12T18:31:28.328Z,101544.00
2018-07-12T18:33:55.992Z,101540.04
2018-07-12T18:36:23.886Z,101546.77
2018-07-12T18:38:51.531Z,101548.39
2018-07-12T18:41:19.187Z,101552.34
2018-07-12T18:43:46.971Z,101551.66
2018-07-12T18:46:14.628Z,101557.92
2018-07-12T18:48:42.291Z,101554.52
2018-07-12T18:51:10.082Z,101559.55
2018-07-12T18:53:37.740Z,101561.81
2018-07-12T18:56:05.474Z,101563.02
2018-07-12T18:58:33.150Z,101558.34
2018-07-12T19:01:00.773Z,101563.86
2018-07-12T19:03:28.447Z,101563.91
2018-07-12T19:05:56.129Z,101564.03
2018-07-12T19:08:23.780Z,101563.25
2018-07-12T19:10:51.484Z,101556.14
2018-07-12T19:13:19.160Z,101554.81
2018-07-12T19:15:46.820Z,101554.41
2018-07-12T19:18:14.510Z,101551.38
2018-07-12T19:20:42.194Z,101558.36
2018-07-12T19:23:09.891Z,101563.73
2018-07-12T19:25:37.562Z,101562.84
2018-07-12T19:28:05.267Z,101564.82
2018-07-12T19:30:32.918Z,101567.23
2018-07-12T19:33:00.578Z,101568.44
2018-07-12T19:35:28.226Z,101570.64
2018-07-12T19:37:55.916Z,101569.65
2018-07-12T19:40:23.597Z,101568.45
2018-07-12T19:42:51.354Z,101565.06
2018-07-12T19:45:19.033Z,101572.19
2018-07-12T19:47:46.732Z,101568.33
2018-07-12T19:50:14.416Z,101570.54
2018-07-12T19:52:42.094Z,101576.70
2018-07-12T19:55:09.758Z,101578.71
2018-07-12T19:57:37.458Z,101576.11
2018-07-12T20:00:05.350Z,101575.05
2018-07-12T20:02:33.031Z,101575.56
2018-07-12T20:05:00.698Z,101574.96
2018-07-12T20:07:28.384Z,101565.03
2018-07-12T20:09:56.046Z,101570.81
2018-07-12T20:12:23.734Z,101562.78
2018-07-12T20:14:51.396Z,101570.52
2018-07-12T20:17:19.065Z,101563.48
2018-07-12T20:19:46.867Z,101567.00
2018-07-12T20:22:14.574Z,101558.08
2018-07-12T20:24:42.229Z,101560.41
2018-07-12T20:27:09.934Z,101553.94
2018-07-12T20:29:37.581Z,101553.70
2018-07-12T20:32:05.290Z,101559.14
2018-07-12T20:34:32.954Z,101565.56
2018-07-12T20:37:00.626Z,101560.11
2018-07-12T20:39:28.284Z,101557.99
2018-07-12T20:41:55.961Z,101557.87
2018-07-12T20:44:23.646Z,101559.22
2018-07-12T20:47:05.910Z,101561.50
2018-07-12T20:49:33.602Z,101567.44
2018-07-12T20:52:01.284Z,101559.75
2018-07-12T20:54:29.002Z,101563.64
2018-07-12T20:56:56.686Z,101563.45
2018-07-12T20:59:24.350Z,101568.06
2018-07-12T21:01:52.034Z,101571.21
2018-07-12T21:04:19.713Z,101572.91
2018-07-12T21:06:47.378Z,101573.78
2018-07-12T21:09:15.030Z,101573.59
2018-07-12T21:11:42.681Z,101571.75
2018-07-12T21:14:10.364Z,101568.71
2018-07-12T21:16:38.014Z,101569.13
2018-07-12T21:19:05.695Z,101570.92
2018-07-12T21:21:33.394Z,101572.99
2018-07-12T21:24:01.058Z,101567.70
2018-07-12T21:26:28.705Z,101571.41
2018-07-12T21:28:56.351Z,101564.06
2018-07-12T21:31:23.993Z,101562.55
2018-07-12T21:33:51.921Z,101567.91
2018-07-12T21:36:19.583Z,101570.25
2018-07-12T21:38:47.265Z,101565.59
2018-07-12T21:41:14.931Z,101571.94
2018-07-12T21:43:42.570Z,101568.59
2018-07-12T21:46:10.239Z,101571.20
2018-07-12T21:48:37.909Z,101579.91
2018-07-12T21:51:05.581Z,101573.38
2018-07-12T21:53:33.230Z,101580.78
2018-07-12T21:56:00.911Z,101575.98
2018-07-12T21:58:28.596Z,101581.31
2018-07-12T22:00:56.260Z,101576.43
2018-07-12T22:03:23.907Z,101575.29
2018-07-12T22:05:51.574Z,101569.88
2018-07-12T22:08:25.347Z,101571.70
2018-07-12T22:11:00.893Z,101567.78
2018-07-12T22:13:29.283Z,101567.16
2018-07-12T22:15:56.965Z,101562.11
2018-07-12T22:18:24.626Z,101565.27
2018-07-12T22:20:52.277Z,101568.91
2018-07-12T22:23:19.946Z,101566.77
2018-07-12T22:25:47.616Z,101567.81
2018-07-12T22:28:15.367Z,101558.98
2018-07-12T22:30:43.198Z,101560.27
2018-07-12T22:33:10.845Z,101560.77
2018-07-12T22:35:38.568Z,101558.16
2018-07-12T22:38:06.241Z,101555.64
2018-07-12T22:40:33.921Z,101555.42
2018-07-12T22:43:01.579Z,101555.17
2018-07-12T22:45:29.270Z,101547.77
2018-07-12T22:47:57.040Z,101543.50
2018-07-12T22:50:24.701Z,101538.34
2018-07-12T22:52:52.434Z,101546.71
2018-07-12T22:55:20.101Z,101549.05
2018-07-12T22:57:47.794Z,101550.03
2018-07-12T23:00:15.465Z,101548.77
2018-07-12T23:02:43.126Z,101552.92
2018-07-12T23:05:10.799Z,101548.55
2018-07-12T23:07:38.445Z,101552.19
2018-07-12T23:10:06.171Z,101545.00
2018-07-12T23:12:33.821Z,101548.44
2018-07-12T23:15:01.518Z,101546.13
2018-07-12T23:17:29.194Z,101550.36
2018-07-12T23:19:56.870Z,101541.62
2018-07-12T23:22:24.525Z,101544.16
2018-07-12T23:24:52.228Z,101544.64
2018-07-12T23:27:19.897Z,101548.44
2018-07-12T23:29:47.705Z,101553.64
2018-07-12T23:32:15.426Z,101550.73
2018-07-12T23:34:43.094Z,101545.87
2018-07-12T23:37:10.822Z,101555.09
2018-07-12T23:39:38.477Z,101553.42
2018-07-12T23:42:06.135Z,101556.81
2018-07-12T23:44:33.813Z,101551.21
2018-07-12T23:47:01.529Z,101548.41
2018-07-12T23:49:29.226Z,101549.16
2018-07-12T23:51:56.904Z,101544.28
2018-07-12T23:54:24.585Z,101541.76
2018-07-12T23:56:52.475Z,101538.82
2018-07-12T23:59:20.321Z,101539.19
